Ringling, MT (59642)

03:05 AM MDT on September 02, 2014 (GMT -0600)
Gallatin | Change Station
CLOSE
Current Station
Airport
Location: Bozeman,
Elevation: 4475 ft
Nearby Weather Stations

Elev 4475 ft 45.79 °N, 111.16 °W | Updated 9 minutes ago

Clear
Cerah
41 °F
Feels Like 36 °F
N
8
Angin Variable Angin from Dari Selatan ke Tenggara

Siang Ini
High -- | Low -- °F
--% Chance of Precip.
Yesterday
High -- | Low -- °F
Precip. -- Inch
6:45 AM 8:00 PM
Waxing Crescent, 49% visible
Tekanan 29.96 Inch
Jarak Pandang 10.0 Mil
Awan Cerah
Angin Dingin 36 °F
Titik Embun 38 °F
Kelembaban 89%
Rainfall 0.00 Inch
Snow Depth Not available.
UV 0 out of 12
Pollen 6.70 out of 12
Air Quality Not available.
Flu Activity Not available.
METAR KBZN 020856Z AUTO 15007KT 10SM CLR 05/03 A3000 RMK AO2 SLP143 T00500033 58002

More Conditions Fewer Conditions

Tekanan 29.96 Inch
Jarak Pandang 10.0 Mil
Awan Cerah
Angin Dingin 36 °F
Titik Embun 38 °F
Kelembaban 89%
Rainfall 0.00 Inch
Snow Depth Not available.
UV 0 out of 12
Pollen 6.70 out of 12
Air Quality Not available.
Flu Activity Not available.
METAR KBZN 020856Z AUTO 15007KT 10SM CLR 05/03 A3000 RMK AO2 SLP143 T00500033 58002

More Conditions Fewer Conditions

10-Day Weather Forecast

Almanac

Astronomi

Sep. 02, 2014 Rise Set
Actual Time 6:45 AM MDT 8:00 PM MDT
Civil Twilight 6:14 AM MDT 8:31 PM MDT
Nautical Twilight 5:36 AM MDT 9:08 PM MDT
Astronomical Twilight 4:56 AM MDT 9:47 PM MDT
Moon 2:57 PM MDT No Moon Set
Length Of Visible Light 14h 16m
Lama Satu Hari
13h 14m
Tomorrow will be 3m 11s shorter.
Waxing Crescent, 49% of the Moon is Illuminated
Siang Ini
Waxing Crescent
Sep 2
Triwulan Pertama
Sep 8
Bulan Purnama
Sep 15
Kuartil Terakhir
Sep 24
New

Today's Extremes

State Highs State Lows

Community

WunderPhotos

Upload Photos

1,749,587 photos uploaded!

WunderBlogs® & News

Nearby

Snow Depth

Station Depth Elevation
Porcupine 1 in 6500 ft
South Fork Shields 0 in 8100 ft
Pickfoot Creek 0 in 6650 ft
Boulder Mountain 0 in 7950 ft
Sacajawea 0 in 6550 ft

Earthquake Activity

City Distance Mag. Time & Date
No recent earthquake activity has been reported nearby.
Minimum magnitude displayed is 2.5.

Coastal Water Temperatures

Lokasi Temperatur
No Stations Reporting

Nearby Weather Stations